Kezdőlap
METAR-TAF:

METAR-TAF

Repülőterek :

Bamako-Sénoui nemzetközi repülőtér

Bamako, Mali

földrajzi szélesség: 12-32N, földrajzi hosszúság: 007-57W, magasság: 380 m

Jelenlegi meteorológiai megfigyelések

A jelentés 23 perccel ezelõtt készült, 17:00 UTC
Dél-délnyugati szél 5 kt, dél-délkeleti és nyugat-délnyugati között változik
Hőmérséklet 39°C
Páratartalom 20%
Légköri nyomás 1007 hPa
Látótávolság 10 km, vagy több
Kevés felhő 4000 lábon

METAR: GABS 191700Z 20005KT 160V240 9999 FEW040 39/12 Q1007 NOSIG

Idő: 17:23 (17:23 UTC)

Előrejelzés

A jelentés 6 órával és 23 perccel ezelõtt készült, 11:00 UTC
Az előrejelzés 19-én 12 óra UTC és 20-én 18 óra UTC között érvényes
Déli szél 6 kt
Látótávolság: 8000 m

TAF: GABS 191100Z 1912/2018 17006KT 8000 NSC

Meteorológiai megfigyelések és előrejelzések több, mint 4000 repülőtéren (METAR és TAF jelentéseket).

A térképen piros és sárga pontok jelzik az elérhető meteorológiai állomásokat.

Mozgassa az egeret a pont fölött, hogy megjelenjen az állomás neve.

Azután kattintson az időjárási megfigyelések és előrejelzések megtekintéséhez.

A térkép megváltoztatása: kattintson a fekete keresztel jelölt zöld gombra ráközelítéshez, a vonallal jelölt zöld gombra távolításhoz, vagy a zöld nyilakra a szomszédos térképek eléréséhez.


METAR-TAF: